Time;durP1;ratioP1;P1;durP2;ratioP2;P2;SDS_P1;SDS_P2;PMS_P1;PMS_P2;Temp;Humidity;BMP_temperature;BMP_pressure;BME280_temperature;BME280_humidity;BME280_pressure;Samples;Min_cycle;Max_cycle;Signal;HPM_P1;HPM_P2
2023/08/24 00:01:21;;;;;;;5.85;4.70;;;23.80;99.90;;;;;;5018470;28;20215;-74
2023/08/24 00:03:47;;;;;;;5.15;4.72;;;23.80;99.90;;;;;;5034144;28;20680;-74
2023/08/24 00:06:13;;;;;;;5.15;4.75;;;23.70;99.90;;;;;;5034700;28;20199;-73
2023/08/24 00:08:39;;;;;;;5.03;4.63;;;23.80;99.90;;;;;;5018510;28;20554;-74
2023/08/24 00:11:05;;;;;;;5.15;4.80;;;23.80;99.90;;;;;;5042530;28;20270;-73
2023/08/24 00:13:32;;;;;;;5.45;4.93;;;23.80;99.90;;;;;;5035630;28;20194;-73
2023/08/24 00:15:58;;;;;;;5.40;5.00;;;23.80;99.90;;;;;;5042629;28;20230;-73
2023/08/24 00:18:24;;;;;;;5.57;4.53;;;23.80;99.90;;;;;;5034206;28;20187;-74
2023/08/24 00:20:50;;;;;;;4.72;4.43;;;23.80;99.90;;;;;;5043491;28;20190;-74
2023/08/24 00:23:18;;;;;;;6.18;4.80;;;23.70;99.90;;;;;;5050327;28;20271;-73
2023/08/24 00:25:44;;;;;;;5.28;4.88;;;23.70;99.90;;;;;;5043332;28;20199;-74
2023/08/24 00:28:10;;;;;;;4.93;4.53;;;23.70;99.90;;;;;;5042730;28;20188;-73
2023/08/24 00:30:37;;;;;;;5.18;4.68;;;23.70;99.90;;;;;;5041787;28;20197;-74
2023/08/24 00:33:04;;;;;;;5.60;5.03;;;23.80;99.90;;;;;;5051700;28;20183;-74
2023/08/24 00:35:30;;;;;;;5.00;4.60;;;23.70;99.90;;;;;;5040846;28;20210;-73
2023/08/24 00:37:56;;;;;;;5.40;4.88;;;23.70;99.90;;;;;;5044054;28;20194;-73
2023/08/24 00:40:22;;;;;;;5.20;4.80;;;23.70;99.90;;;;;;5030783;28;20194;-74
2023/08/24 00:42:48;;;;;;;5.80;5.03;;;23.70;99.90;;;;;;5054013;28;20217;-73
2023/08/24 00:45:14;;;;;;;5.38;4.85;;;23.70;99.90;;;;;;5045687;28;20194;-74
2023/08/24 00:47:44;;;;;;;5.78;4.85;;;23.70;99.90;;;;;;5037021;28;20194;-74
2023/08/24 00:50:11;;;;;;;5.43;5.03;;;23.70;99.90;;;;;;5037037;28;20316;-74
2023/08/24 00:52:42;;;;;;;5.50;5.10;;;23.70;99.90;;;;;;5018464;28;20198;-74
2023/08/24 00:55:09;;;;;;;5.10;4.70;;;23.70;99.90;;;;;;5035138;28;20241;-73
2023/08/24 00:57:37;;;;;;;5.30;4.90;;;23.70;99.90;;;;;;5022505;28;20215;-73
2023/08/24 01:00:08;;;;;;;5.50;5.00;;;23.60;99.90;;;;;;5031401;28;20270;-74
2023/08/24 01:02:34;;;;;;;5.18;4.78;;;23.70;99.90;;;;;;5024354;28;20326;-73
2023/08/24 01:05:00;;;;;;;5.47;5.05;;;23.60;99.90;;;;;;5042840;28;20243;-74
2023/08/24 01:07:26;;;;;;;5.43;4.90;;;23.60;99.90;;;;;;5033587;28;20183;-74
2023/08/24 01:09:53;;;;;;;5.43;5.03;;;23.60;99.90;;;;;;5041850;28;20199;-73
2023/08/24 01:12:29;;;;;;;5.28;4.88;;;23.60;99.90;;;;;;5036954;28;20183;-74
2023/08/24 01:15:51;;;;;;;5.88;5.15;;;23.60;99.90;;;;;;5036129;28;20218;-74
2023/08/24 01:18:20;;;;;;;4.95;4.55;;;23.60;99.90;;;;;;5022305;28;20203;-74
2023/08/24 01:20:49;;;;;;;5.13;4.68;;;23.60;99.90;;;;;;5029787;28;20215;-73
2023/08/24 01:23:36;;;;;;;5.10;4.70;;;23.60;99.90;;;;;;5040865;28;20244;-73
2023/08/24 01:26:16;;;;;;;5.68;5.10;;;23.60;99.90;;;;;;5033492;28;20769;-74
2023/08/24 01:28:45;;;;;;;5.05;4.55;;;23.60;99.90;;;;;;5033137;28;20191;-73
2023/08/24 01:31:10;;;;;;;5.40;5.00;;;23.50;99.90;;;;;;5049230;28;20213;-73
2023/08/24 01:33:36;;;;;;;5.47;4.97;;;23.50;99.90;;;;;;5039016;28;20217;-73
2023/08/24 01:36:02;;;;;;;5.65;5.13;;;23.50;99.90;;;;;;5052059;28;20221;-73
2023/08/24 01:38:30;;;;;;;6.00;5.22;;;23.60;99.90;;;;;;5022977;28;20223;-74
2023/08/24 01:41:03;;;;;;;5.95;5.45;;;23.60;99.90;;;;;;5034584;28;20186;-73
2023/08/24 01:43:33;;;;;;;4.80;4.50;;;23.50;99.90;;;;;;5039422;28;20302;-73
2023/08/24 01:46:03;;;;;;;5.10;4.75;;;23.50;99.90;;;;;;5050318;28;20277;-74
2023/08/24 01:48:30;;;;;;;5.22;4.88;;;23.50;99.90;;;;;;5045981;28;20191;-74
2023/08/24 01:50:58;;;;;;;5.15;4.75;;;23.50;99.90;;;;;;5044648;28;20199;-73
2023/08/24 01:53:28;;;;;;;5.43;5.05;;;23.50;99.90;;;;;;5039909;28;20184;-73
2023/08/24 01:55:55;;;;;;;5.15;4.65;;;23.60;99.90;;;;;;5035762;28;20233;-74
2023/08/24 01:58:21;;;;;;;6.05;5.57;;;23.50;99.90;;;;;;5041076;28;20191;-73
2023/08/24 02:00:47;;;;;;;5.20;4.70;;;23.50;99.90;;;;;;5031298;28;20190;-74
2023/08/24 02:03:13;;;;;;;5.30;4.80;;;23.40;99.90;;;;;;5052453;28;20321;-74
2023/08/24 02:05:39;;;;;;;5.55;5.05;;;23.50;99.90;;;;;;5037090;28;20211;-74
2023/08/24 02:08:05;;;;;;;5.18;4.70;;;23.50;99.90;;;;;;5038728;28;20238;-74
2023/08/24 02:10:31;;;;;;;5.57;5.07;;;23.50;99.90;;;;;;5012657;28;20227;-74
2023/08/24 02:12:57;;;;;;;5.68;5.25;;;23.50;99.90;;;;;;5029557;28;20222;-73
2023/08/24 02:15:22;;;;;;;5.35;4.95;;;23.50;99.90;;;;;;5028942;28;20223;-73
2023/08/24 02:17:48;;;;;;;5.90;5.30;;;23.60;99.50;;;;;;5021081;28;20192;-74
2023/08/24 02:20:14;;;;;;;5.82;5.18;;;23.50;99.90;;;;;;5023507;28;20196;-75
2023/08/24 02:22:40;;;;;;;5.60;5.10;;;23.40;99.90;;;;;;5032180;28;20218;-74
2023/08/24 02:25:08;;;;;;;5.35;4.95;;;23.40;99.90;;;;;;5029174;28;20215;-74
2023/08/24 02:27:34;;;;;;;5.18;4.78;;;23.50;99.30;;;;;;5023126;28;20202;-73
2023/08/24 02:30:00;;;;;;;5.85;5.35;;;23.50;99.90;;;;;;5012780;28;20183;-73
2023/08/24 02:32:26;;;;;;;5.63;5.13;;;23.50;99.90;;;;;;5016337;28;20196;-74
2023/08/24 02:34:52;;;;;;;5.18;4.68;;;23.50;99.90;;;;;;5017143;28;20241;-74
2023/08/24 02:37:17;;;;;;;5.43;5.03;;;23.50;99.90;;;;;;5034176;28;20206;-74
2023/08/24 02:39:43;;;;;;;5.90;4.78;;;23.50;99.00;;;;;;5006915;28;20205;-73
2023/08/24 02:42:09;;;;;;;5.50;4.97;;;23.50;99.70;;;;;;5031934;28;20205;-74
2023/08/24 02:44:35;;;;;;;5.93;5.05;;;23.50;99.70;;;;;;5026851;28;20192;-74
2023/08/24 02:47:03;;;;;;;4.90;4.50;;;23.50;99.50;;;;;;5035423;28;20192;-74
2023/08/24 02:49:30;;;;;;;5.13;4.72;;;23.50;99.60;;;;;;5031576;28;20264;-74
2023/08/24 02:51:55;;;;;;;5.28;4.78;;;23.40;99.00;;;;;;5007886;28;20247;-73
2023/08/24 02:54:21;;;;;;;5.20;4.80;;;23.40;99.00;;;;;;5019156;28;20187;-74
2023/08/24 02:56:48;;;;;;;5.05;4.65;;;23.40;99.80;;;;;;5020213;28;20187;-72
2023/08/24 02:59:14;;;;;;;4.90;4.50;;;23.40;99.10;;;;;;5035167;28;20288;-73
2023/08/24 03:01:41;;;;;;;5.32;4.88;;;23.40;99.80;;;;;;5016479;28;20195;-73
2023/08/24 03:04:07;;;;;;;4.88;4.47;;;23.40;99.90;;;;;;5021697;28;20211;-73
2023/08/24 03:06:33;;;;;;;5.55;4.85;;;23.40;98.10;;;;;;5019941;28;20253;-73
2023/08/24 03:09:03;;;;;;;5.88;5.13;;;23.40;99.50;;;;;;5020076;28;20278;-74
2023/08/24 03:11:29;;;;;;;5.30;4.80;;;23.40;99.60;;;;;;5028279;28;20598;-73
2023/08/24 03:13:55;;;;;;;5.32;4.82;;;23.40;99.10;;;;;;5018869;28;20321;-73
2023/08/24 03:16:21;;;;;;;5.60;5.15;;;23.40;99.40;;;;;;5039367;28;20218;-74
2023/08/24 03:18:46;;;;;;;5.03;4.63;;;23.40;99.20;;;;;;5032971;28;20234;-73
2023/08/24 03:21:12;;;;;;;4.80;4.40;;;23.40;99.10;;;;;;5042318;28;20192;-73
2023/08/24 03:23:38;;;;;;;4.93;4.50;;;23.40;99.40;;;;;;5024043;28;20210;-74
2023/08/24 03:26:06;;;;;;;5.07;4.57;;;23.50;99.20;;;;;;5030084;28;20260;-74
2023/08/24 03:28:32;;;;;;;5.15;4.75;;;23.40;99.10;;;;;;5039915;28;20182;-74
2023/08/24 03:31:00;;;;;;;5.30;4.90;;;23.40;98.50;;;;;;5047700;28;20191;-73
2023/08/24 03:33:27;;;;;;;5.50;4.90;;;23.40;98.70;;;;;;5043187;28;20194;-74
2023/08/24 03:35:54;;;;;;;5.65;4.60;;;23.40;99.00;;;;;;5043234;28;20207;-74
2023/08/24 03:38:20;;;;;;;5.13;4.75;;;23.40;98.80;;;;;;5038084;28;20183;-73
2023/08/24 03:40:45;;;;;;;5.60;5.10;;;23.40;99.20;;;;;;5030345;28;20256;-73
2023/08/24 03:43:11;;;;;;;5.28;4.78;;;23.50;99.20;;;;;;5055070;28;20220;-74
2023/08/24 03:45:37;;;;;;;5.70;4.80;;;23.40;97.70;;;;;;5029983;28;20206;-74
2023/08/24 03:48:04;;;;;;;4.88;4.47;;;23.40;98.70;;;;;;5046490;28;20187;-74
2023/08/24 03:50:30;;;;;;;5.47;4.97;;;23.40;98.10;;;;;;5035523;28;20225;-73
2023/08/24 03:52:56;;;;;;;5.43;4.90;;;23.40;98.80;;;;;;5041610;28;20209;-74
2023/08/24 03:55:22;;;;;;;5.57;4.97;;;23.40;98.50;;;;;;5035701;28;20234;-74
2023/08/24 03:57:48;;;;;;;5.13;4.72;;;23.40;98.50;;;;;;5044175;28;20713;-73
2023/08/24 04:00:14;;;;;;;5.70;5.15;;;23.50;97.70;;;;;;5036146;28;20198;-74
2023/08/24 04:02:41;;;;;;;5.63;5.07;;;23.40;98.10;;;;;;5043218;28;20211;-73
2023/08/24 04:05:08;;;;;;;5.25;4.85;;;23.40;98.60;;;;;;5026528;28;20210;-73
2023/08/24 04:07:36;;;;;;;5.25;4.75;;;23.40;98.60;;;;;;5038865;28;20235;-73
2023/08/24 04:10:06;;;;;;;5.00;4.60;;;23.40;97.50;;;;;;5038756;28;20200;-74
2023/08/24 04:12:32;;;;;;;4.97;4.60;;;23.40;97.90;;;;;;5030739;28;20183;-73
2023/08/24 04:14:58;;;;;;;5.20;4.80;;;23.40;97.20;;;;;;5037533;28;20654;-73
2023/08/24 04:17:25;;;;;;;4.75;4.43;;;23.40;98.20;;;;;;5035555;28;20191;-74
2023/08/24 04:19:51;;;;;;;5.65;5.05;;;23.50;98.40;;;;;;5040659;28;20206;-74
2023/08/24 04:22:16;;;;;;;5.20;4.80;;;23.50;97.80;;;;;;5053802;28;20179;-73
2023/08/24 04:24:42;;;;;;;4.90;4.60;;;23.50;97.20;;;;;;5032458;28;20227;-74
2023/08/24 04:27:08;;;;;;;5.95;5.38;;;23.50;97.90;;;;;;5042282;28;20239;-73
2023/08/24 04:29:34;;;;;;;5.15;4.60;;;23.50;97.80;;;;;;5025645;28;20191;-73
2023/08/24 04:31:59;;;;;;;5.30;4.90;;;23.60;97.70;;;;;;5034263;28;20651;-73
2023/08/24 04:34:26;;;;;;;5.22;4.82;;;23.60;97.80;;;;;;5033834;28;20198;-74
2023/08/24 04:36:52;;;;;;;6.85;5.30;;;23.50;97.40;;;;;;5040591;28;20244;-74
2023/08/24 04:39:18;;;;;;;5.38;4.80;;;23.50;97.80;;;;;;5035804;28;20187;-73
2023/08/24 04:41:45;;;;;;;5.30;4.88;;;23.50;97.40;;;;;;5042567;28;20195;-73
2023/08/24 04:44:10;;;;;;;5.78;5.13;;;23.60;97.90;;;;;;5053919;28;20207;-72
2023/08/24 04:46:36;;;;;;;6.53;5.22;;;23.60;97.50;;;;;;5037742;28;20304;-73
2023/08/24 04:49:03;;;;;;;5.72;5.13;;;23.60;96.50;;;;;;5055143;28;20563;-73
2023/08/24 04:51:29;;;;;;;5.75;5.25;;;23.60;97.10;;;;;;5044072;28;20206;-74
2023/08/24 04:53:54;;;;;;;5.28;4.88;;;23.70;97.20;;;;;;5023453;28;20190;-74
2023/08/24 04:56:20;;;;;;;5.57;4.90;;;23.70;97.10;;;;;;5029978;28;20240;-73
2023/08/24 04:58:57;;;;;;;5.88;5.18;;;23.70;96.90;;;;;;5053372;28;20329;-73
2023/08/24 05:01:26;;;;;;;7.25;4.97;;;23.80;97.10;;;;;;5053119;28;20613;-73
2023/08/24 05:03:53;;;;;;;5.45;4.95;;;23.80;96.30;;;;;;5034851;28;20218;-72
2023/08/24 05:06:20;;;;;;;5.10;4.60;;;23.80;96.10;;;;;;5043902;28;20261;-73
2023/08/24 05:08:45;;;;;;;7.68;4.80;;;23.80;96.10;;;;;;5029494;28;20226;-74
2023/08/24 05:11:19;;;;;;;5.82;5.28;;;23.80;96.10;;;;;;5038104;28;20179;-73
2023/08/24 05:13:46;;;;;;;7.15;4.90;;;23.80;95.80;;;;;;5039596;28;20194;-73
2023/08/24 05:16:13;;;;;;;6.13;5.07;;;23.80;95.50;;;;;;5054616;28;20210;-73
2023/08/24 05:18:39;;;;;;;5.40;4.90;;;23.80;95.40;;;;;;5036852;28;20232;-74
2023/08/24 05:21:06;;;;;;;5.07;4.68;;;23.90;95.30;;;;;;5038063;28;20191;-72
2023/08/24 05:23:35;;;;;;;6.88;5.38;;;23.90;95.30;;;;;;5041192;28;20206;-72
2023/08/24 05:26:02;;;;;;;5.85;4.97;;;23.90;95.40;;;;;;5047672;28;20285;-72
2023/08/24 05:28:31;;;;;;;6.85;4.68;;;24.00;95.40;;;;;;5034639;28;20195;-73
2023/08/24 05:30:58;;;;;;;6.07;4.93;;;24.00;95.30;;;;;;5046920;28;20182;-73
2023/08/24 05:33:25;;;;;;;6.07;5.15;;;24.00;95.30;;;;;;5035247;28;20187;-73
2023/08/24 05:35:51;;;;;;;5.05;4.55;;;24.10;95.00;;;;;;5030012;28;20217;-73
2023/08/24 05:38:18;;;;;;;7.60;5.32;;;24.10;95.20;;;;;;5019568;28;20186;-72
2023/08/24 05:40:47;;;;;;;5.68;5.10;;;24.10;95.00;;;;;;5020785;28;20279;-73
2023/08/24 05:43:13;;;;;;;5.72;5.07;;;24.10;94.90;;;;;;5046957;28;20211;-72
2023/08/24 05:45:40;;;;;;;8.90;5.43;;;24.00;94.90;;;;;;5049221;28;20263;-73
2023/08/24 05:48:07;;;;;;;5.63;4.45;;;23.90;95.50;;;;;;5033027;28;20279;-73
2023/08/24 05:50:33;;;;;;;6.10;5.50;;;24.00;95.50;;;;;;5041149;28;20194;-73
2023/08/24 05:52:59;;;;;;;5.85;5.35;;;24.00;95.10;;;;;;5016230;28;20219;-73
2023/08/24 05:55:26;;;;;;;5.90;5.40;;;24.00;95.00;;;;;;5034988;28;20312;-72
2023/08/24 05:57:51;;;;;;;6.00;5.38;;;24.00;95.20;;;;;;5043273;28;20277;-73
2023/08/24 06:00:17;;;;;;;5.80;5.20;;;24.00;95.30;;;;;;5036017;28;20198;-71
2023/08/24 06:02:43;;;;;;;6.53;5.30;;;24.10;95.50;;;;;;5052131;28;20249;-73
2023/08/24 06:05:11;;;;;;;5.68;5.05;;;24.10;95.30;;;;;;5038077;28;20207;-73
2023/08/24 06:07:37;;;;;;;6.47;5.50;;;24.10;95.40;;;;;;5042165;28;20191;-73
2023/08/24 06:10:03;;;;;;;8.57;5.45;;;24.10;95.30;;;;;;5040960;28;20193;-73
2023/08/24 06:12:29;;;;;;;5.82;5.30;;;24.10;95.30;;;;;;5033880;28;20191;-73
2023/08/24 06:14:54;;;;;;;7.82;5.70;;;24.10;95.10;;;;;;5026995;28;20215;-72
2023/08/24 06:17:20;;;;;;;6.60;5.10;;;24.10;95.10;;;;;;5021356;28;20217;-72
2023/08/24 06:19:46;;;;;;;5.40;5.00;;;24.10;95.30;;;;;;5032297;28;20195;-73
2023/08/24 06:22:12;;;;;;;6.13;5.50;;;24.20;95.20;;;;;;5015875;28;20202;-73
2023/08/24 06:24:37;;;;;;;7.15;5.70;;;24.20;95.20;;;;;;5038742;28;20186;-73
2023/08/24 06:27:03;;;;;;;7.00;5.65;;;24.20;95.20;;;;;;5034505;28;20213;-73
2023/08/24 06:29:29;;;;;;;6.47;5.45;;;24.20;95.20;;;;;;5045811;28;20235;-73
2023/08/24 06:31:55;;;;;;;5.70;5.10;;;24.20;95.40;;;;;;5046649;28;20186;-72
2023/08/24 06:34:21;;;;;;;6.00;5.40;;;24.20;95.50;;;;;;5055992;28;20699;-73
2023/08/24 06:36:47;;;;;;;6.43;5.63;;;24.30;95.30;;;;;;5057140;28;20260;-74
2023/08/24 06:39:13;;;;;;;6.82;5.68;;;24.20;95.30;;;;;;5057558;28;20191;-73
2023/08/24 06:41:39;;;;;;;6.38;5.57;;;24.30;95.40;;;;;;5037396;28;20209;-72
2023/08/24 06:44:07;;;;;;;5.97;4.90;;;24.30;95.60;;;;;;5044348;28;20211;-73
2023/08/24 06:46:33;;;;;;;5.78;5.28;;;24.30;95.70;;;;;;5034168;28;20206;-72
2023/08/24 06:48:58;;;;;;;7.47;6.13;;;24.30;95.70;;;;;;5044079;28;20179;-71
2023/08/24 06:51:25;;;;;;;8.02;6.03;;;24.30;95.80;;;;;;5044482;28;20612;-71
2023/08/24 06:53:51;;;;;;;6.82;6.00;;;24.30;95.80;;;;;;5044336;28;20670;-72
2023/08/24 06:56:18;;;;;;;6.65;5.88;;;24.20;95.90;;;;;;5038560;28;20219;-72
2023/08/24 06:58:45;;;;;;;6.30;5.70;;;24.20;95.80;;;;;;5028677;28;20192;-73
2023/08/24 07:01:11;;;;;;;6.72;5.97;;;24.20;95.90;;;;;;5021663;28;20257;-73
2023/08/24 07:03:37;;;;;;;7.65;5.68;;;24.20;96.00;;;;;;5041379;28;20215;-72
2023/08/24 07:06:12;;;;;;;6.38;5.78;;;23.70;97.60;;;;;;5023159;28;20211;-73
2023/08/24 07:08:38;;;;;;;6.07;5.57;;;23.60;99.20;;;;;;5037396;28;20226;-72
2023/08/24 07:11:03;;;;;;;7.63;5.47;;;23.40;99.90;;;;;;5016724;28;20191;-72
2023/08/24 07:13:29;;;;;;;6.80;6.10;;;23.50;99.90;;;;;;5038485;28;20220;-70
2023/08/24 07:15:55;;;;;;;8.70;5.85;;;23.60;99.90;;;;;;5040376;28;20266;-70
2023/08/24 07:18:21;;;;;;;6.85;5.88;;;23.60;99.90;;;;;;5047709;28;20188;-72
2023/08/24 07:20:47;;;;;;;9.48;6.28;;;23.40;99.90;;;;;;5038727;28;20195;-72
2023/08/24 07:23:13;;;;;;;10.32;6.07;;;23.40;99.90;;;;;;5039600;28;20309;-72
2023/08/24 07:25:39;;;;;;;6.63;6.03;;;23.40;99.90;;;;;;5035016;28;20214;-72
2023/08/24 07:28:05;;;;;;;7.15;6.30;;;23.50;99.90;;;;;;5035373;28;20175;-71
2023/08/24 07:30:31;;;;;;;6.70;6.10;;;23.60;99.90;;;;;;5043480;28;20269;-72
2023/08/24 07:32:58;;;;;;;6.88;6.20;;;23.60;99.90;;;;;;5035058;28;20194;-72
2023/08/24 07:35:27;;;;;;;6.93;6.32;;;23.60;99.90;;;;;;5043594;28;20210;-72
2023/08/24 07:37:53;;;;;;;8.63;7.18;;;23.60;99.90;;;;;;5049905;28;20274;-72
2023/08/24 07:40:19;;;;;;;7.18;6.47;;;23.60;99.90;;;;;;5051324;28;20214;-72
2023/08/24 07:42:54;;;;;;;7.78;6.88;;;23.50;99.90;;;;;;5029181;28;20208;-73
2023/08/24 07:45:21;;;;;;;7.43;6.65;;;23.20;99.90;;;;;;5018905;28;20211;-72
2023/08/24 07:47:47;;;;;;;10.65;7.38;;;23.10;99.90;;;;;;5018750;28;20221;-72
2023/08/24 07:50:12;;;;;;;8.00;6.75;;;23.30;99.90;;;;;;5035049;28;20191;-72
2023/08/24 07:52:39;;;;;;;7.60;6.80;;;23.30;99.90;;;;;;5018632;28;20222;-72
2023/08/24 07:55:07;;;;;;;7.18;6.57;;;23.30;99.90;;;;;;5035849;28;20199;-72
2023/08/24 07:57:37;;;;;;;7.38;6.75;;;23.40;99.90;;;;;;5035394;28;20195;-72
2023/08/24 08:00:05;;;;;;;7.80;6.10;;;23.40;99.90;;;;;;5035954;28;20550;-71
2023/08/24 08:02:38;;;;;;;6.57;5.97;;;23.70;99.90;;;;;;5027085;28;20210;-70
2023/08/24 08:05:07;;;;;;;6.30;5.70;;;23.90;99.90;;;;;;5020336;28;20223;-71
2023/08/24 08:07:32;;;;;;;7.10;5.80;;;24.00;99.90;;;;;;5015125;28;20188;-70
2023/08/24 08:09:58;;;;;;;6.30;5.70;;;24.10;99.90;;;;;;5028860;28;20187;-70
2023/08/24 08:12:24;;;;;;;6.30;5.70;;;24.10;99.90;;;;;;5035734;28;20175;-70
2023/08/24 08:14:50;;;;;;;6.57;5.63;;;24.10;99.90;;;;;;5017502;28;20207;-69
2023/08/24 08:17:16;;;;;;;6.50;5.90;;;24.20;99.90;;;;;;5033914;28;20195;-70
2023/08/24 08:19:41;;;;;;;6.55;6.05;;;24.20;99.90;;;;;;5014097;28;20196;-70
2023/08/24 08:22:07;;;;;;;6.35;5.75;;;24.20;99.90;;;;;;5022115;28;20183;-70
2023/08/24 08:24:33;;;;;;;6.32;5.68;;;24.20;99.90;;;;;;5035083;28;20640;-70
2023/08/24 08:26:59;;;;;;;6.60;5.70;;;24.20;99.90;;;;;;5034376;28;20230;-70
2023/08/24 08:29:25;;;;;;;5.85;5.35;;;24.20;99.90;;;;;;5033988;28;20214;-70
2023/08/24 08:31:51;;;;;;;6.30;5.70;;;24.20;99.90;;;;;;5034094;28;20183;-70
2023/08/24 08:34:16;;;;;;;6.43;5.82;;;24.30;99.90;;;;;;5030816;28;20192;-70
2023/08/24 08:36:42;;;;;;;5.95;5.47;;;24.30;99.90;;;;;;5014012;28;20204;-70
2023/08/24 08:39:08;;;;;;;6.43;5.82;;;24.30;99.90;;;;;;5033398;28;20274;-70
2023/08/24 08:41:43;;;;;;;6.30;5.47;;;24.30;99.90;;;;;;5017434;28;20203;-70
2023/08/24 08:44:13;;;;;;;5.60;5.10;;;24.30;99.90;;;;;;5017345;28;20200;-69
2023/08/24 08:46:42;;;;;;;6.00;5.28;;;24.30;99.90;;;;;;5016851;28;20230;-70
2023/08/24 08:49:09;;;;;;;6.00;5.40;;;24.20;99.90;;;;;;5033964;28;20206;-70
2023/08/24 08:51:36;;;;;;;6.18;5.53;;;24.30;99.90;;;;;;5033366;28;20262;-71
2023/08/24 08:54:06;;;;;;;5.68;5.28;;;24.30;99.90;;;;;;5033253;28;20655;-70
2023/08/24 08:56:33;;;;;;;6.43;5.20;;;24.30;99.90;;;;;;5042158;28;20230;-70
2023/08/24 08:59:00;;;;;;;6.22;5.40;;;24.30;99.90;;;;;;5041666;28;20179;-71
2023/08/24 09:01:28;;;;;;;5.65;5.25;;;24.30;99.90;;;;;;5040686;28;20191;-71
2023/08/24 09:03:54;;;;;;;5.78;5.28;;;24.30;99.90;;;;;;5053160;28;20225;-69
2023/08/24 09:06:21;;;;;;;5.88;5.30;;;24.30;99.90;;;;;;5028313;28;20210;-70
2023/08/24 09:08:49;;;;;;;5.80;5.30;;;24.30;99.90;;;;;;5046071;28;20186;-70
2023/08/24 09:11:15;;;;;;;5.70;5.20;;;24.40;99.90;;;;;;5053358;28;20277;-71
2023/08/24 09:13:40;;;;;;;5.72;5.25;;;24.40;99.90;;;;;;5019665;28;20209;-70
2023/08/24 09:16:08;;;;;;;5.47;4.97;;;24.40;99.90;;;;;;5029362;28;20210;-70
2023/08/24 09:18:37;;;;;;;6.18;5.55;;;24.40;99.90;;;;;;5045661;28;20190;-70
2023/08/24 09:21:11;;;;;;;5.45;5.03;;;24.40;99.90;;;;;;5037468;28;20229;-69
2023/08/24 09:23:45;;;;;;;5.38;4.97;;;24.40;99.90;;;;;;5044518;28;20283;-70
2023/08/24 09:26:10;;;;;;;5.32;4.93;;;24.40;99.90;;;;;;5048489;28;20254;-70
2023/08/24 09:28:39;;;;;;;5.65;5.15;;;24.40;99.90;;;;;;5033582;28;20286;-70
2023/08/24 09:31:05;;;;;;;5.28;4.82;;;24.40;99.90;;;;;;5054137;28;20189;-70
2023/08/24 09:33:31;;;;;;;5.40;5.00;;;24.40;99.90;;;;;;5027893;28;20269;-69
2023/08/24 09:36:01;;;;;;;5.38;4.88;;;24.40;99.90;;;;;;5025269;28;20686;-70
2023/08/24 09:38:28;;;;;;;6.20;5.70;;;24.40;99.90;;;;;;5042428;28;20197;-70
2023/08/24 09:40:56;;;;;;;5.55;5.13;;;24.40;99.90;;;;;;5049344;28;20194;-70
2023/08/24 09:43:23;;;;;;;5.63;5.22;;;24.40;99.90;;;;;;5030360;28;20218;-68
2023/08/24 09:45:54;;;;;;;6.30;5.70;;;24.40;99.90;;;;;;5027100;28;20231;-70
2023/08/24 09:48:21;;;;;;;6.00;5.07;;;24.40;99.90;;;;;;5047905;28;20190;-70
2023/08/24 09:50:50;;;;;;;5.75;5.30;;;24.40;99.90;;;;;;5043760;28;20180;-70
2023/08/24 09:53:22;;;;;;;5.55;5.05;;;24.40;99.90;;;;;;5045175;28;20189;-70
2023/08/24 09:55:59;;;;;;;5.28;4.80;;;24.40;99.90;;;;;;5043422;28;20697;-70
2023/08/24 09:58:26;;;;;;;5.95;5.43;;;24.40;99.90;;;;;;5046275;28;20291;-70
2023/08/24 10:00:53;;;;;;;5.57;5.03;;;24.40;99.90;;;;;;5041722;28;20191;-70
2023/08/24 10:03:24;;;;;;;5.82;5.40;;;24.40;99.90;;;;;;5045747;28;20276;-69
2023/08/24 10:05:53;;;;;;;5.60;5.20;;;24.40;99.90;;;;;;5043591;28;20238;-70
2023/08/24 10:08:27;;;;;;;5.30;4.80;;;24.50;99.90;;;;;;5035161;28;20191;-70
2023/08/24 10:10:55;;;;;;;5.95;4.88;;;24.40;99.90;;;;;;5042629;28;20190;-70
2023/08/24 10:13:31;;;;;;;5.35;4.88;;;24.50;99.90;;;;;;5051540;28;20222;-69
2023/08/24 10:15:59;;;;;;;5.60;5.13;;;24.50;99.90;;;;;;5049702;28;20213;-69
2023/08/24 10:18:26;;;;;;;5.57;5.07;;;24.50;99.90;;;;;;5040149;28;20191;-69
2023/08/24 10:20:52;;;;;;;6.07;5.18;;;24.50;99.90;;;;;;5042688;28;20198;-70
2023/08/24 10:23:20;;;;;;;5.40;4.90;;;24.50;99.90;;;;;;5027405;28;20217;-69
2023/08/24 10:25:46;;;;;;;6.05;5.55;;;24.50;99.90;;;;;;5051272;28;20681;-71
2023/08/24 10:28:15;;;;;;;4.88;4.47;;;24.50;99.90;;;;;;5045506;28;20225;-70
2023/08/24 10:30:44;;;;;;;5.05;4.65;;;24.50;99.90;;;;;;5043839;28;20183;-70
2023/08/24 10:33:13;;;;;;;5.57;5.07;;;24.50;99.90;;;;;;5043666;28;20382;-70
2023/08/24 10:35:40;;;;;;;5.50;5.10;;;24.50;99.90;;;;;;5028710;28;20204;-70
2023/08/24 10:38:06;;;;;;;5.35;4.95;;;24.50;99.90;;;;;;5027115;28;20182;-70
2023/08/24 10:40:39;;;;;;;5.38;4.88;;;24.50;99.90;;;;;;5051849;28;20189;-70
2023/08/24 10:43:05;;;;;;;5.70;5.30;;;24.50;99.90;;;;;;5043686;28;20257;-69
2023/08/24 10:45:57;;;;;;;5.95;5.28;;;24.50;99.90;;;;;;5043711;28;20577;-70
2023/08/24 10:48:28;;;;;;;5.88;4.97;;;24.50;99.90;;;;;;5039657;28;20288;-70
2023/08/24 10:51:13;;;;;;;5.65;5.05;;;24.50;99.90;;;;;;5027238;28;20190;-71
2023/08/24 10:53:59;;;;;;;5.32;4.82;;;24.50;99.90;;;;;;5035638;28;20198;-71
2023/08/24 10:56:39;;;;;;;5.60;5.20;;;24.60;99.90;;;;;;5047636;28;20203;-71
2023/08/24 10:59:19;;;;;;;5.80;5.30;;;24.50;99.90;;;;;;5041447;28;20192;-70
2023/08/24 11:01:55;;;;;;;5.75;5.25;;;24.60;99.90;;;;;;5040156;28;20195;-71
2023/08/24 11:04:21;;;;;;;5.72;5.00;;;24.50;99.90;;;;;;5044760;28;20202;-69
2023/08/24 11:07:05;;;;;;;6.65;5.30;;;24.50;99.90;;;;;;5051871;28;20198;-70
2023/08/24 11:09:49;;;;;;;5.63;5.00;;;24.50;99.90;;;;;;5045480;28;20194;-70
2023/08/24 11:12:15;;;;;;;5.90;5.20;;;24.50;99.90;;;;;;5040166;28;20183;-70
2023/08/24 11:14:58;;;;;;;5.72;5.22;;;24.60;99.90;;;;;;5030149;28;20278;-70
2023/08/24 11:17:29;;;;;;;5.25;4.72;;;24.60;99.90;;;;;;5042569;28;20196;-71
2023/08/24 11:19:55;;;;;;;7.35;5.07;;;24.60;99.90;;;;;;5045611;28;20571;-70
2023/08/24 11:22:21;;;;;;;6.43;5.68;;;24.60;99.90;;;;;;5043475;28;20658;-70
2023/08/24 11:24:47;;;;;;;7.18;5.55;;;24.60;99.90;;;;;;5051335;28;20218;-70
2023/08/24 11:27:14;;;;;;;6.10;5.32;;;24.60;99.90;;;;;;5038808;28;20616;-70
2023/08/24 11:29:40;;;;;;;5.85;5.18;;;24.60;99.90;;;;;;5047639;28;20221;-71
2023/08/24 11:32:06;;;;;;;5.78;5.20;;;24.60;99.90;;;;;;5052334;28;20191;-70
2023/08/24 11:34:33;;;;;;;5.80;5.30;;;24.60;99.90;;;;;;5042530;28;20217;-69
2023/08/24 11:37:00;;;;;;;5.53;5.13;;;24.60;99.90;;;;;;5036543;28;20186;-70
2023/08/24 11:39:31;;;;;;;5.97;5.38;;;24.60;99.90;;;;;;5054880;28;20649;-70
2023/08/24 11:42:04;;;;;;;5.90;5.35;;;24.60;99.90;;;;;;5046621;28;20199;-70
2023/08/24 11:44:48;;;;;;;5.65;5.15;;;24.60;99.90;;;;;;5047595;28;20212;-70
2023/08/24 11:47:15;;;;;;;5.80;5.28;;;24.60;99.90;;;;;;5046499;28;20182;-70
2023/08/24 11:49:41;;;;;;;5.85;5.35;;;24.60;99.90;;;;;;5022662;28;20226;-70
2023/08/24 11:52:08;;;;;;;5.68;5.10;;;24.60;99.90;;;;;;5045148;28;20253;-70
2023/08/24 11:54:38;;;;;;;6.95;5.03;;;24.60;99.90;;;;;;5046400;28;20232;-70
2023/08/24 11:57:08;;;;;;;6.25;5.25;;;24.60;99.90;;;;;;5048144;28;20225;-70
2023/08/24 11:59:36;;;;;;;5.65;5.00;;;24.60;99.90;;;;;;5029891;28;20241;-70
2023/08/24 12:02:03;;;;;;;5.45;4.95;;;24.60;99.90;;;;;;5047315;28;20197;-70
2023/08/24 12:04:39;;;;;;;5.78;5.22;;;24.60;99.90;;;;;;5046329;28;20202;-70
2023/08/24 12:07:12;;;;;;;5.07;4.63;;;24.60;99.90;;;;;;5053945;28;20178;-70
2023/08/24 12:09:40;;;;;;;6.07;5.57;;;24.60;99.90;;;;;;5043283;28;20202;-71
2023/08/24 12:12:16;;;;;;;5.30;4.90;;;24.60;99.90;;;;;;5035152;28;20239;-71
2023/08/24 12:14:46;;;;;;;6.30;5.70;;;24.70;99.90;;;;;;5049324;28;20639;-70
2023/08/24 12:17:13;;;;;;;5.57;5.07;;;24.60;99.90;;;;;;5030814;28;20198;-70
2023/08/24 12:19:44;;;;;;;5.47;5.00;;;24.70;99.90;;;;;;5017903;28;20332;-70
2023/08/24 12:22:19;;;;;;;6.18;5.00;;;24.60;99.90;;;;;;5042967;28;20203;-70
2023/08/24 12:24:46;;;;;;;5.22;4.40;;;24.60;99.90;;;;;;5053723;28;20209;-70
2023/08/24 12:27:19;;;;;;;5.53;5.03;;;24.70;99.90;;;;;;5045685;28;20214;-70
2023/08/24 12:29:46;;;;;;;5.72;5.00;;;24.70;99.90;;;;;;5055007;28;20228;-70
2023/08/24 12:32:15;;;;;;;6.15;4.97;;;24.70;99.90;;;;;;5036254;28;20269;-70
2023/08/24 12:34:41;;;;;;;5.13;4.63;;;24.70;99.90;;;;;;5050188;28;20252;-70
2023/08/24 12:37:06;;;;;;;6.47;5.28;;;24.70;99.90;;;;;;5045583;28;20197;-70
2023/08/24 12:39:36;;;;;;;5.68;5.28;;;24.70;99.90;;;;;;5024640;28;20219;-70
2023/08/24 12:42:03;;;;;;;5.57;5.00;;;24.70;99.90;;;;;;5034557;28;20190;-70
2023/08/24 12:44:29;;;;;;;5.75;4.97;;;24.70;99.90;;;;;;5041569;28;20248;-70
2023/08/24 12:46:55;;;;;;;6.22;5.32;;;24.70;99.90;;;;;;5050512;28;20190;-71
2023/08/24 12:49:20;;;;;;;5.80;5.20;;;24.70;99.90;;;;;;5051355;28;20245;-70
2023/08/24 12:51:47;;;;;;;5.50;5.00;;;24.70;99.90;;;;;;5034077;28;20290;-70